地図

経路データ

SID SEASON NUMBER BASIN SUBBASIN NAME ISO_TIME NATURE LAT LON WMO_WIND WMO_PRES WMO_AGENCY TRACK_TYPE DIST2LAND LANDFALL IFLAG USA_AGENCY USA_ATCF_ID USA_LAT USA_LON USA_RECORD USA_STATUS USA_WIND USA_PRES USA_SSHS USA_R34_NE USA_R34_SE USA_R34_SW USA_R34_NW USA_R50_NE USA_R50_SE USA_R50_SW USA_R50_NW USA_R64_NE USA_R64_SE USA_R64_SW USA_R64_NW USA_POCI USA_ROCI USA_RMW USA_EYE TOKYO_LAT TOKYO_LON TOKYO_GRADE TOKYO_WIND TOKYO_PRES TOKYO_R50_DIR TOKYO_R50_LONG TOKYO_R50_SHORT TOKYO_R30_DIR TOKYO_R30_LONG TOKYO_R30_SHORT TOKYO_LAND CMA_LAT CMA_LON CMA_CAT CMA_WIND CMA_PRES HKO_LAT HKO_LON HKO_CAT HKO_WIND HKO_PRES NEWDELHI_LAT NEWDELHI_LON NEWDELHI_GRADE NEWDELHI_WIND NEWDELHI_PRES NEWDELHI_CI NEWDELHI_DP NEWDELHI_POCI REUNION_LAT REUNION_LON REUNION_TYPE REUNION_WIND REUNION_PRES REUNION_TNUM REUNION_CI REUNION_RMW REUNION_R34_NE REUNION_R34_SE REUNION_R34_SW REUNION_R34_NW REUNION_R50_NE REUNION_R50_SE REUNION_R50_SW REUNION_R50_NW REUNION_R64_NE REUNION_R64_SE REUNION_R64_SW REUNION_R64_NW BOM_LAT BOM_LON BOM_TYPE BOM_WIND BOM_PRES BOM_TNUM BOM_CI BOM_RMW BOM_R34_NE BOM_R34_SE BOM_R34_SW BOM_R34_NW BOM_R50_NE BOM_R50_SE BOM_R50_SW BOM_R50_NW BOM_R64_NE BOM_R64_SE BOM_R64_SW BOM_R64_NW BOM_ROCI BOM_POCI BOM_EYE BOM_POS_METHOD BOM_PRES_METHOD NADI_LAT NADI_LON NADI_CAT NADI_WIND NADI_PRES WELLINGTON_LAT WELLINGTON_LON WELLINGTON_WIND WELLINGTON_PRES DS824_LAT DS824_LON DS824_STAGE DS824_WIND DS824_PRES TD9636_LAT TD9636_LON TD9636_STAGE TD9636_WIND TD9636_PRES TD9635_LAT TD9635_LON TD9635_WIND TD9635_PRES TD9635_ROCI NEUMANN_LAT NEUMANN_LON NEUMANN_CLASS NEUMANN_WIND NEUMANN_PRES MLC_LAT MLC_LON MLC_CLASS MLC_WIND MLC_PRES USA_GUST BOM_GUST BOM_GUST_PER REUNION_GUST REUNION_GUST_PER USA_SEAHGT USA_SEARAD_NE USA_SEARAD_SE USA_SEARAD_SW USA_SEARAD_NW STORM_SPEED STORM_DIR
1972246N21157 1972 88 WP MM NOT_NAMED 1972-09-01 12:00:00 TS 21.1000 156.800 main 2242 2206 __O___________ -1 21.1000 156.800 0 1006 9 278
1972246N21157 1972 88 WP MM NOT_NAMED 1972-09-01 15:00:00 TS 21.1628 156.338 main 2199 2172 __P___________ -1 21.1628 156.338 0 1006 8 277
1972246N21157 1972 88 WP MM NOT_NAMED 1972-09-01 18:00:00 TS 21.2000 155.900 main 2172 2145 __O___________ -1 21.2000 155.900 0 1006 8 273
1972246N21157 1972 88 WP MM NOT_NAMED 1972-09-01 21:00:00 TS 21.1998 155.500 main 2145 2119 __P___________ -1 21.1998 155.500 0 1005 7 270
1972246N21157 1972 88 WP MM NOT_NAMED 1972-09-02 00:00:00 TS 21.2000 155.100 main 2119 2093 __O___________ -1 21.2000 155.100 0 19 1004 8 274
1972246N21157 1972 88 WP MM NOT_NAMED 1972-09-02 03:00:00 TS 21.2499 154.665 main 2093 2052 __P___________ -1 21.2499 154.665 0 21 1004 8 277
1972246N21157 1972 88 WP MM NOT_NAMED 1972-09-02 06:00:00 TS 21.3000 154.200 main 2052 2020 __O___________ -1 21.3000 154.200 1 23 1004 9 274
1972246N21157 1972 88 WP MM NOT_NAMED 1972-09-02 09:00:00 TS 21.3074 153.707 main 2020 1990 __P___________ -1 21.3074 153.707 1 23 1004 9 270
1972246N21157 1972 88 WP MM NOT_NAMED 1972-09-02 12:00:00 TS 21.3000 153.200 main 1990 1959 __O___________ -1 21.3000 153.200 1 23 1004 9 270
1972246N21157 1972 88 WP MM NOT_NAMED 1972-09-02 15:00:00 TS 21.2999 152.700 main 1959 1930 __P___________ -1 21.2999 152.700 1 23 1004 9 270
1972246N21157 1972 88 WP MM NOT_NAMED 1972-09-02 18:00:00 TS 21.3000 152.200 main 1930 1902 __O___________ -1 21.3000 152.200 1 23 1004 9 270
1972246N21157 1972 88 WP MM NOT_NAMED 1972-09-02 21:00:00 TS 21.2924 151.700 main 1902 1874 __P___________ -1 21.2924 151.700 1 23 1004 9 270
1972246N21157 1972 88 WP MM NOT_NAMED 1972-09-03 00:00:00 TS 21.3000 151.200 main 1874 1847 __O___________ -1 21.3000 151.200 1 23 1004 9 273
1972246N21157 1972 88 WP MM NOT_NAMED 1972-09-03 03:00:00 TS 21.3422 150.715 main 1847 1810 __P___________ -1 21.3422 150.715 1 26 1003 9 276
1972246N21157 1972 88 WP MM NOT_NAMED 1972-09-03 06:00:00 TS 21.4000 150.200 main 1810 1779 __O___________ -1 21.4000 150.200 1 29 1003 10 276
1972246N21157 1972 88 WP MM NOT_NAMED 1972-09-03 09:00:00 TS 21.4425 149.607 main 1779 1739 __P___________ -1 21.4425 149.607 1 29 1003 11 275
1972246N21157 1972 88 WP MM NOT_NAMED 1972-09-03 12:00:00 TS 21.5000 149.000 main 1739 1704 __O___________ -1 21.5000 149.000 1 29 1003 11 277
1972246N21157 1972 88 WP MM NOT_NAMED 1972-09-03 15:00:00 TS 21.5848 148.435 main 1700 1666 __P___________ -1 21.5848 148.435 1 29 1003 10 281
1972246N21157 1972 88 WP MM NOT_NAMED 1972-09-03 18:00:00 TS 21.7000 147.900 main 1666 1638 __O___________ -1 21.7000 147.900 1 29 1003 9 286
1972246N21157 1972 88 WP MM NOT_NAMED 1972-09-03 21:00:00 TS 21.8336 147.482 main 1638 1592 __P___________ -1 21.8336 147.482 1 29 1003 10 288
1972246N21157 1972 88 WP MM NOT_NAMED 1972-09-04 00:00:00 TS 22.0000 146.900 main 1592 1536 __O___________ -1 22.0000 146.900 1 29 1003 15 283
1972246N21157 1972 88 WP MM NOT_NAMED 1972-09-04 03:00:00 TS 22.1632 145.889 main 1532 1474 __P___________ -1 22.1632 145.889 1 26 1003 21 281
1972246N21157 1972 88 WP MM NOT_NAMED 1972-09-04 06:00:00 TS 22.4000 144.700 main 1471 1410 __O___________ -1 22.4000 144.700 1 23 1004 22 286
1972246N21157 1972 88 WP MM NOT_NAMED 1972-09-04 09:00:00 TS 22.7688 143.622 main 1397 1317 __P___________ -1 22.7688 143.622 1 23 1004 22 292
1972246N21157 1972 88 WP MM NOT_NAMED 1972-09-04 12:00:00 TS 23.2000 142.500 main 1312 1218 __O___________ -1 23.2000 142.500 1 23 1004 23 290
1972246N21157 1972 88 WP MM NOT_NAMED 1972-09-04 15:00:00 TS 23.5774 141.256 main 1218 1129 __P___________ -1 23.5774 141.256 1 23 1004 24 289
1972246N21157 1972 88 WP MM NOT_NAMED 1972-09-04 18:00:00 TS 24.0000 140.000 main 1125 1035 __O___________ -1 24.0000 140.000 1 23 1004 25 294
1972246N21157 1972 88 WP MM NOT_NAMED 1972-09-04 21:00:00 TS 24.5727 138.761 main 1024 934 __P___________ -1 24.5727 138.761 1 23 1005 24 298
1972246N21157 1972 88 WP MM NOT_NAMED 1972-09-05 00:00:00 TS 25.1000 137.700 main 934 864 __O___________ -1 25.1000 137.700 1 23 1006 18 296
1972246N21157 1972 88 WP MM NOT_NAMED 1972-09-05 03:00:00 TS 25.3784 136.973 main 864 810 __P___________ -1 25.3784 136.973 1 26 1006 13 293
1972246N21157 1972 88 WP MM NOT_NAMED 1972-09-05 06:00:00 TS 25.6000 136.400 main 810 748 __O___________ -1 25.6000 136.400 1 29 1006 12 297
1972246N21157 1972 88 WP MM NOT_NAMED 1972-09-05 09:00:00 TS 25.9498 135.743 main 743 673 __P___________ -1 25.9498 135.743 1 29 1006 14 301
1972246N21157 1972 88 WP MM NOT_NAMED 1972-09-05 12:00:00 TS 26.3000 135.100 main 673 623 __O___________ -1 26.3000 135.100 1 29 1006 13 298
1972246N21157 1972 88 WP MM NOT_NAMED 1972-09-05 15:00:00 TS 26.5494 134.507 main 623 562 __P___________ -1 26.5494 134.507 1 29 1006 12 295
1972246N21157 1972 88 WP MM NOT_NAMED 1972-09-05 18:00:00 TS 26.8000 133.900 main 562 503 __O___________ -1 26.8000 133.900 1 29 1006 13 297
1972246N21157 1972 88 WP MM NOT_NAMED 1972-09-05 21:00:00 TS 27.1421 133.230 main 498 427 __P___________ -1 27.1421 133.230 1 29 1006 14 299
1972246N21157 1972 88 WP MM NOT_NAMED 1972-09-06 00:00:00 TS 27.5000 132.500 main 427 372 __O___________ -1 27.5000 132.500 1 29 1006 15 296
1972246N21157 1972 88 WP MM NOT_NAMED 1972-09-06 03:00:00 TS 27.8073 131.715 main 370 324 __P___________ -1 27.8073 131.715 1 26 1006 15 293
1972246N21157 1972 88 WP MM NOT_NAMED 1972-09-06 06:00:00 TS 28.1000 130.900 main 324 294 __O___________ -1 28.1000 130.900 1 23 1006 16 292
1972246N21157 1972 88 WP MM NOT_NAMED 1972-09-06 09:00:00 TS 28.4157 130.011 main 297 285 __P___________ -1 28.4157 130.011 1 23 1006 15 293
1972246N21157 1972 88 WP MM NOT_NAMED 1972-09-06 12:00:00 TS 28.7000 129.300 main 289 277 __O___________ -1 28.7000 129.300 1 23 1006 10 300
1972246N21157 1972 88 WP MM NOT_NAMED 1972-09-06 15:00:00 TS 28.9141 129.009 main 281 265 __P___________ -1 28.9141 129.009 1 23 1006 5 319
1972246N21157 1972 88 WP MM NOT_NAMED 1972-09-06 18:00:00 TS 29.1000 128.900 main 265 256 __O___________ -1 29.1000 128.900 1 23 1006 5 323
1972246N21157 1972 88 WP MM NOT_NAMED 1972-09-06 21:00:00 TS 29.2850 128.685 main 256 250 __P___________ -1 29.2850 128.685 1 23 1006 5 319
1972246N21157 1972 88 WP MM NOT_NAMED 1972-09-07 00:00:00 TS 29.5000 128.500 main 250 232 __O___________ -1 29.5000 128.500 1 23 1006 6 330
1972246N21157 1972 88 WP MM NOT_NAMED 1972-09-07 03:00:00 TS 29.7700 128.363 main 232 219 __P___________ -1 29.7700 128.363 1 23 1004 6 344
1972246N21157 1972 88 WP MM NOT_NAMED 1972-09-07 06:00:00 TS 30.1000 128.300 main 219 197 __O___________ -1 30.1000 128.300 1 23 1003 7 355
1972246N21157 1972 88 WP MM NOT_NAMED 1972-09-07 09:00:00 TS 30.4999 128.290 main 197 174 __P___________ -1 30.4999 128.290 1 23 1003 8 6
1972246N21157 1972 88 WP MM NOT_NAMED 1972-09-07 12:00:00 TS 30.9000 128.400 main 174 151 __O___________ -1 30.9000 128.400 1 23 1003 8 24
1972246N21157 1972 88 WP MM NOT_NAMED 1972-09-07 15:00:00 TS 31.2076 128.662 main 142 115 __P___________ -1 31.2076 128.662 1 26 1003 8 41
1972246N21157 1972 88 WP MM NOT_NAMED 1972-09-07 18:00:00 ET 31.5000 129.000 main 115 94 __O___________ -1 31.5000 129.000 9 29 1003 8 38
1972246N21157 1972 88 WP MM NOT_NAMED 1972-09-07 21:00:00 ET 31.8418 129.241 main 94 45 __P___________ -1 31.8418 129.241 9 29 1003 9 36
1972246N21157 1972 88 WP MM NOT_NAMED 1972-09-08 00:00:00 ET 32.2000 129.600 main 45 0 __O___________ -1 32.2000 129.600 9 29 1003 11 50
1972246N21157 1972 88 WP MM NOT_NAMED 1972-09-08 03:00:00 ET 32.5736 130.284 main 9 0 __P___________ -1 32.5736 130.284 9 29 1003 14 59
1972246N21157 1972 88 WP MM NOT_NAMED 1972-09-08 06:00:00 ET 32.9000 131.000 main 0 0 __O___________ -1 32.9000 131.000 9 29 1003 11 61
1972246N21157 1972 88 WP MM NOT_NAMED 1972-09-08 09:00:00 ET 33.1065 131.416 main 0 0 __P___________ -1 33.1065 131.416 9 29 1003 8 59
1972246N21157 1972 88 WP MM NOT_NAMED 1972-09-08 12:00:00 ET 33.3000 131.800 main 11 9 __O___________ -1 33.3000 131.800 9 29 1004 9 59
1972246N21157 1972 88 WP MM NOT_NAMED 1972-09-08 15:00:00 ET 33.5928 132.385 main 11 0 __P___________ -1 33.5928 132.385 9 29 1004 12 59
1972246N21157 1972 88 WP MM NOT_NAMED 1972-09-08 18:00:00 ET 33.9000 133.000 main 0 0 __O___________ -1 33.9000 133.000 9 29 1004 11 56
1972246N21157 1972 88 WP MM NOT_NAMED 1972-09-08 21:00:00 ET 34.1941 133.478 main 18 0 __P___________ -1 34.1941 133.478 9 29 1004 10 59
1972246N21157 1972 88 WP MM NOT_NAMED 1972-09-09 00:00:00 ET 34.4000 134.000 main 11 11 __O___________ -1 34.4000 134.000 9 29 1004 11 76
1972246N21157 1972 88 WP MM NOT_NAMED 1972-09-09 03:00:00 ET 34.4530 134.735 main 24 0 __P___________ -1 34.4530 134.735 9 29 1004 12 90
1972246N21157 1972 88 WP MM NOT_NAMED 1972-09-09 06:00:00 ET 34.4000 135.500 main 0 0 __O___________ -1 34.4000 135.500 9 29 1004 11 98
1972246N21157 1972 88 WP MM NOT_NAMED 1972-09-09 09:00:00 ET 34.2906 136.056 main 0 0 __P___________ -1 34.2906 136.056 9 26 1005 10 101
1972246N21157 1972 88 WP MM NOT_NAMED 1972-09-09 12:00:00 ET 34.2000 136.700 main 11 11 __O___________ -1 34.2000 136.700 9 23 1006 13 97
1972246N21157 1972 88 WP MM NOT_NAMED 1972-09-09 15:00:00 ET 34.1227 137.671 main 66 34 __P___________ -1 34.1227 137.671 9 23 1006 17 87
1972246N21157 1972 88 WP MM NOT_NAMED 1972-09-09 18:00:00 ET 34.3000 138.800 main 33 0 __O___________ -1 34.3000 138.800 9 23 1006 20 67
1972246N21157 1972 88 WP MM NOT_NAMED 1972-09-09 21:00:00 ET 34.9191 139.945 main 0 0 __P___________ -1 34.9191 139.945 9 23 1006 24 52
1972246N21157 1972 88 WP MM NOT_NAMED 1972-09-10 00:00:00 ET 35.8000 141.100 main 21 __O___________ -1 35.8000 141.100 9 23 1006 26 47

デジタル台風データ・検索

IBTrACS Databaseについて

本データベースは、米国NOAAが公開する1842年以降の世界の熱帯低気圧のベストトラックデータアーカイブInternational Best Track Archive for Climate Stewardship (IBTrACS)を、ウェブで閲覧しやすい形式に変換したものです。

最終更新日:2021-10-08